Time;durP1;ratioP1;P1;durP2;ratioP2;P2;SDS_P1;SDS_P2;PMS_P1;PMS_P2;Temp;Humidity;BMP_temperature;BMP_pressure;BME280_temperature;BME280_humidity;BME280_pressure;Samples;Min_cycle;Max_cycle;Signal;HPM_P1;HPM_P2
2023/06/27 00:02:20;;;;;;;1.88;1.13;;;27.70;41.10;;;;;;5000271;28;20029;-68
2023/06/27 00:04:46;;;;;;;1.77;1.10;;;27.70;41.20;;;;;;5002584;28;20124;-68
2023/06/27 00:07:12;;;;;;;1.60;1.00;;;27.60;41.10;;;;;;5001640;28;20053;-68
2023/06/27 00:09:38;;;;;;;1.35;1.08;;;27.70;41.20;;;;;;5000432;28;20084;-68
2023/06/27 00:12:05;;;;;;;1.23;0.90;;;27.60;41.20;;;;;;5001554;28;20529;-68
2023/06/27 00:14:36;;;;;;;1.73;1.00;;;27.60;41.20;;;;;;5003049;28;20041;-68
2023/06/27 00:17:07;;;;;;;1.05;0.80;;;27.60;41.20;;;;;;5005056;28;20065;-68
2023/06/27 00:19:32;;;;;;;1.60;1.00;;;27.60;41.30;;;;;;5002549;28;20027;-68
2023/06/27 00:21:58;;;;;;;1.83;1.00;;;27.60;41.30;;;;;;5001328;28;20114;-68
2023/06/27 00:24:24;;;;;;;1.75;1.00;;;27.60;41.30;;;;;;5002042;28;20105;-68
2023/06/27 00:26:50;;;;;;;1.63;1.00;;;27.60;41.40;;;;;;5000493;28;20026;-68
2023/06/27 00:29:15;;;;;;;1.83;1.05;;;27.60;41.40;;;;;;5001294;28;20084;-68
2023/06/27 00:31:41;;;;;;;0.98;0.90;;;27.60;41.40;;;;;;5003123;28;20406;-67
2023/06/27 00:34:07;;;;;;;1.40;1.00;;;27.60;41.50;;;;;;5001234;28;20128;-68
2023/06/27 00:36:32;;;;;;;1.75;1.05;;;27.60;41.50;;;;;;5001742;28;20552;-68
2023/06/27 00:38:58;;;;;;;1.67;1.10;;;27.60;41.50;;;;;;5002723;28;20031;-67
2023/06/27 00:41:23;;;;;;;1.67;1.20;;;27.60;41.50;;;;;;4999619;28;20041;-68
2023/06/27 00:43:49;;;;;;;1.83;0.90;;;27.50;41.50;;;;;;5003263;28;20022;-68
2023/06/27 00:46:27;;;;;;;1.27;0.90;;;27.50;41.50;;;;;;5000195;28;20030;-68
2023/06/27 00:48:53;;;;;;;1.25;0.88;;;27.50;41.50;;;;;;5000090;28;20030;-68
2023/06/27 00:51:19;;;;;;;1.25;0.95;;;27.50;41.60;;;;;;4999892;28;20038;-68
2023/06/27 00:53:44;;;;;;;1.40;1.00;;;27.50;41.60;;;;;;5000355;28;20125;-68
2023/06/27 00:56:10;;;;;;;1.40;0.90;;;27.50;41.60;;;;;;5001853;28;20466;-68
2023/06/27 00:58:36;;;;;;;1.67;0.90;;;27.50;41.60;;;;;;5001245;28;20080;-68
2023/06/27 01:01:04;;;;;;;1.33;0.85;;;27.50;41.70;;;;;;4999548;28;20026;-68
2023/06/27 01:03:32;;;;;;;1.73;1.10;;;27.50;41.70;;;;;;5003369;28;20037;-68
2023/06/27 01:06:01;;;;;;;1.40;1.00;;;27.50;41.70;;;;;;5000899;28;20109;-68
2023/06/27 01:08:35;;;;;;;1.20;0.93;;;27.50;41.70;;;;;;5001067;28;20077;-68
2023/06/27 01:11:14;;;;;;;1.45;1.00;;;27.50;41.80;;;;;;5000830;28;20439;-68
2023/06/27 01:13:42;;;;;;;1.05;0.90;;;27.50;41.80;;;;;;4999882;28;20113;-68
2023/06/27 01:16:09;;;;;;;1.10;0.90;;;27.50;41.80;;;;;;4999771;28;20077;-67
2023/06/27 01:18:39;;;;;;;1.23;0.82;;;27.50;41.90;;;;;;4999199;28;20022;-68
2023/06/27 01:21:08;;;;;;;;;;;27.50;41.90;;;;;;4997940;28;20041;-67
2023/06/27 01:23:53;;;;;;;1.10;0.95;;;27.50;41.90;;;;;;5002182;28;19905;-68
2023/06/27 01:26:19;;;;;;;1.02;0.90;;;27.50;41.90;;;;;;5000557;28;20038;-68
2023/06/27 01:28:45;;;;;;;1.33;0.90;;;27.50;41.90;;;;;;5000879;28;20030;-67
2023/06/27 01:31:22;;;;;;;1.10;0.90;;;27.50;42.00;;;;;;4998440;28;20030;-68
2023/06/27 01:34:06;;;;;;;0.88;0.73;;;27.40;41.90;;;;;;5001576;28;20025;-68
2023/06/27 01:36:41;;;;;;;1.60;1.00;;;27.40;41.90;;;;;;4999978;28;20030;-67
2023/06/27 01:39:09;;;;;;;2.15;1.02;;;27.40;42.00;;;;;;4999881;28;20065;-68
2023/06/27 01:41:40;;;;;;;1.48;0.90;;;27.40;42.00;;;;;;4996741;28;20025;-68
2023/06/27 01:44:09;;;;;;;1.20;0.90;;;27.40;42.00;;;;;;4999118;28;20523;-68
2023/06/27 01:46:36;;;;;;;1.05;0.85;;;27.40;42.00;;;;;;5000303;28;20329;-68
2023/06/27 01:49:03;;;;;;;1.42;0.90;;;27.40;42.00;;;;;;4999690;28;20035;-67
2023/06/27 01:51:29;;;;;;;1.10;0.90;;;27.40;42.10;;;;;;4999372;28;20027;-68
2023/06/27 01:53:55;;;;;;;1.75;1.13;;;27.40;42.30;;;;;;4999378;28;20026;-68
2023/06/27 01:56:21;;;;;;;1.35;1.00;;;27.40;42.10;;;;;;4998879;28;20056;-68
2023/06/27 01:58:47;;;;;;;1.02;0.80;;;27.40;42.70;;;;;;5000425;28;20029;-68
2023/06/27 02:01:13;;;;;;;1.38;1.00;;;27.40;42.20;;;;;;4999608;28;20032;-68
2023/06/27 02:03:39;;;;;;;1.00;0.90;;;27.40;42.20;;;;;;4999604;28;20018;-68
2023/06/27 02:06:04;;;;;;;1.48;1.13;;;27.40;42.20;;;;;;4999156;28;20109;-68
2023/06/27 02:08:30;;;;;;;1.55;1.00;;;27.30;42.20;;;;;;5000543;28;20037;-68
2023/06/27 02:10:55;;;;;;;0.98;0.80;;;27.40;42.20;;;;;;4998516;28;20083;-68
2023/06/27 02:13:21;;;;;;;1.42;1.02;;;27.40;42.20;;;;;;4998487;28;20368;-68
2023/06/27 02:15:47;;;;;;;1.23;1.00;;;27.40;42.30;;;;;;4999224;28;20437;-68
2023/06/27 02:18:13;;;;;;;1.70;0.90;;;27.30;42.20;;;;;;4999783;28;20038;-69
2023/06/27 02:20:38;;;;;;;1.48;0.90;;;27.30;42.30;;;;;;5001462;28;20413;-68
2023/06/27 02:23:04;;;;;;;0.95;0.88;;;27.30;42.20;;;;;;4996791;28;20079;-68
2023/06/27 02:25:29;;;;;;;1.23;0.80;;;27.30;42.30;;;;;;5000443;28;20091;-68
2023/06/27 02:27:55;;;;;;;1.15;0.85;;;27.30;42.30;;;;;;4999272;28;20041;-68
2023/06/27 02:30:21;;;;;;;0.98;0.88;;;27.30;42.30;;;;;;4998502;28;20037;-68
2023/06/27 02:32:46;;;;;;;1.83;0.95;;;27.30;42.30;;;;;;4999741;28;20034;-68
2023/06/27 02:35:15;;;;;;;2.55;1.00;;;27.30;42.30;;;;;;4999558;28;20034;-68
2023/06/27 02:37:41;;;;;;;1.38;0.90;;;27.30;42.30;;;;;;4995583;28;20022;-68
2023/06/27 02:40:07;;;;;;;1.05;0.95;;;27.30;42.40;;;;;;4999761;28;20509;-68
2023/06/27 02:42:33;;;;;;;1.08;0.80;;;27.30;42.40;;;;;;4998626;28;20090;-68
2023/06/27 02:44:58;;;;;;;1.30;0.98;;;27.30;42.40;;;;;;4996718;28;20040;-68
2023/06/27 02:47:24;;;;;;;1.10;0.90;;;27.30;42.40;;;;;;4998208;28;20034;-68
2023/06/27 02:49:49;;;;;;;1.33;0.80;;;27.30;42.50;;;;;;4999098;28;20050;-68
2023/06/27 02:52:15;;;;;;;1.35;0.98;;;27.30;42.40;;;;;;5000658;28;20121;-68
2023/06/27 02:54:41;;;;;;;1.15;0.80;;;27.30;42.40;;;;;;4999474;28;20040;-68
2023/06/27 02:57:06;;;;;;;1.73;1.00;;;27.30;42.50;;;;;;4997530;28;20493;-68
2023/06/27 02:59:32;;;;;;;1.38;1.00;;;27.20;42.40;;;;;;4997992;28;20058;-68
2023/06/27 03:01:57;;;;;;;1.23;0.98;;;27.30;42.50;;;;;;5000308;28;20382;-68
2023/06/27 03:04:25;;;;;;;0.90;0.80;;;27.30;42.50;;;;;;4998086;28;20107;-67
2023/06/27 03:06:50;;;;;;;1.40;0.90;;;27.30;42.50;;;;;;4999927;28;20070;-68
2023/06/27 03:09:18;;;;;;;0.80;0.80;;;27.20;42.50;;;;;;4999855;28;20430;-68
2023/06/27 03:11:44;;;;;;;1.00;0.90;;;27.20;42.50;;;;;;4998790;28;20436;-67
2023/06/27 03:14:09;;;;;;;1.48;0.85;;;27.20;42.50;;;;;;4997937;28;20109;-68
2023/06/27 03:16:35;;;;;;;0.82;0.73;;;27.20;42.50;;;;;;4996379;28;20037;-68
2023/06/27 03:19:00;;;;;;;1.58;0.98;;;27.20;42.60;;;;;;4998274;28;20045;-68
2023/06/27 03:21:26;;;;;;;1.40;1.00;;;27.20;42.50;;;;;;4999118;28;20073;-67
2023/06/27 03:23:51;;;;;;;1.20;0.80;;;27.20;42.60;;;;;;4998477;28;20034;-68
2023/06/27 03:26:17;;;;;;;1.42;1.00;;;27.20;42.60;;;;;;4997791;28;20038;-62
2023/06/27 03:28:43;;;;;;;1.13;0.88;;;27.20;42.60;;;;;;4997011;28;20073;-71
2023/06/27 03:31:08;;;;;;;1.20;0.90;;;27.20;42.60;;;;;;4997688;28;20102;-70
2023/06/27 03:33:34;;;;;;;1.35;1.00;;;27.20;43.20;;;;;;4998321;28;20033;-70
2023/06/27 03:36:00;;;;;;;0.90;0.70;;;27.20;42.60;;;;;;4999860;28;20037;-70
2023/06/27 03:38:25;;;;;;;1.10;0.80;;;27.20;42.60;;;;;;5002707;28;20492;-69
2023/06/27 03:40:51;;;;;;;0.95;0.80;;;27.20;42.70;;;;;;5001375;28;20475;-70
2023/06/27 03:43:16;;;;;;;1.17;0.85;;;27.20;42.70;;;;;;5002413;28;20049;-70
2023/06/27 03:45:42;;;;;;;1.38;0.90;;;27.20;42.70;;;;;;5001702;28;20545;-71
2023/06/27 03:48:09;;;;;;;1.40;0.90;;;27.20;42.70;;;;;;5001171;28;20057;-70
2023/06/27 03:50:36;;;;;;;1.00;0.80;;;27.20;42.60;;;;;;5003081;28;20104;-70
2023/06/27 03:53:02;;;;;;;2.13;0.90;;;27.10;42.30;;;;;;5008591;28;20026;-71
2023/06/27 03:55:27;;;;;;;1.27;1.00;;;27.20;42.10;;;;;;5002604;28;20033;-71
2023/06/27 03:57:53;;;;;;;1.60;1.10;;;27.10;41.60;;;;;;5000780;28;20143;-71
2023/06/27 04:00:19;;;;;;;1.77;1.08;;;27.10;41.40;;;;;;5007132;28;20176;-70
2023/06/27 04:02:44;;;;;;;2.40;1.20;;;27.00;41.70;;;;;;4999003;28;20034;-71
2023/06/27 04:05:10;;;;;;;1.67;1.17;;;27.00;41.00;;;;;;5001331;28;20070;-70
2023/06/27 04:07:36;;;;;;;1.70;1.20;;;27.00;40.80;;;;;;5000019;28;20083;-71
2023/06/27 04:10:02;;;;;;;2.08;1.20;;;27.00;40.70;;;;;;5002219;28;20096;-70
2023/06/27 04:12:27;;;;;;;2.05;1.08;;;27.00;40.60;;;;;;4999975;28;20141;-71
2023/06/27 04:14:53;;;;;;;1.33;0.95;;;27.00;40.60;;;;;;5000714;28;20475;-72
2023/06/27 04:17:19;;;;;;;2.63;1.30;;;27.00;40.50;;;;;;5001748;28;20031;-72
2023/06/27 04:19:44;;;;;;;2.72;1.10;;;27.00;40.50;;;;;;5002041;28;20026;-72
2023/06/27 04:22:10;;;;;;;2.30;1.27;;;27.00;40.50;;;;;;5000288;28;20022;-72
2023/06/27 04:24:35;;;;;;;2.38;1.30;;;26.90;40.60;;;;;;5001090;28;20502;-72
2023/06/27 04:27:01;;;;;;;2.90;1.42;;;26.90;40.60;;;;;;5002349;28;20030;-71
2023/06/27 04:29:27;;;;;;;2.40;1.20;;;26.90;40.50;;;;;;4996715;28;20042;-71
2023/06/27 04:31:52;;;;;;;2.72;1.35;;;26.90;40.40;;;;;;5000567;28;20128;-70
2023/06/27 04:34:18;;;;;;;2.53;1.20;;;26.90;40.40;;;;;;5000301;28;20053;-70
2023/06/27 04:36:44;;;;;;;2.03;1.10;;;26.90;40.30;;;;;;4999179;28;20699;-70
2023/06/27 04:39:10;;;;;;;2.40;1.30;;;26.90;40.10;;;;;;5003258;28;20060;-70
2023/06/27 04:41:36;;;;;;;3.03;1.15;;;26.80;39.90;;;;;;5001684;28;20531;-70
2023/06/27 04:44:02;;;;;;;4.00;1.30;;;26.80;39.80;;;;;;4998846;28;20455;-70
2023/06/27 04:46:28;;;;;;;2.72;1.25;;;26.80;39.80;;;;;;5000175;28;20041;-71
2023/06/27 04:49:00;;;;;;;3.38;1.30;;;26.80;39.80;;;;;;5000641;28;20037;-70
2023/06/27 04:51:29;;;;;;;3.00;1.30;;;26.80;39.70;;;;;;5000678;28;20022;-71
2023/06/27 04:53:55;;;;;;;2.65;1.40;;;26.80;39.80;;;;;;4999277;28;20022;-71
2023/06/27 04:56:22;;;;;;;2.25;1.30;;;26.80;39.90;;;;;;4999973;28;20034;-70
2023/06/27 04:58:48;;;;;;;3.50;1.23;;;26.70;39.70;;;;;;4998672;28;20100;-70
2023/06/27 05:01:14;;;;;;;3.33;1.40;;;26.70;39.70;;;;;;5002346;28;20537;-70
2023/06/27 05:03:41;;;;;;;2.97;1.30;;;26.70;39.70;;;;;;5014231;28;20105;-71
2023/06/27 05:06:07;;;;;;;2.28;1.30;;;26.70;39.70;;;;;;4999335;28;20499;-70
2023/06/27 05:08:35;;;;;;;3.10;1.42;;;26.70;39.70;;;;;;4999589;28;20674;-70
2023/06/27 05:11:01;;;;;;;4.38;1.30;;;26.60;39.60;;;;;;4999959;28;20030;-70
2023/06/27 05:13:26;;;;;;;1.73;1.10;;;26.60;39.60;;;;;;4999210;28;20030;-69
2023/06/27 05:15:52;;;;;;;1.58;1.08;;;26.60;39.70;;;;;;5002540;28;20033;-70
2023/06/27 05:18:18;;;;;;;1.75;0.90;;;26.60;39.70;;;;;;4999986;28;20038;-70
2023/06/27 05:20:44;;;;;;;1.65;1.00;;;26.60;39.60;;;;;;4999703;28;20470;-70
2023/06/27 05:23:11;;;;;;;3.33;1.10;;;26.60;39.60;;;;;;5001407;28;20032;-70
2023/06/27 05:25:37;;;;;;;2.35;1.10;;;26.60;40.20;;;;;;5001641;28;20038;-70
2023/06/27 05:28:03;;;;;;;3.28;1.20;;;26.50;39.60;;;;;;4994647;28;20031;-70
2023/06/27 05:30:29;;;;;;;2.53;1.20;;;26.50;39.60;;;;;;4997115;28;20117;-71
2023/06/27 05:32:56;;;;;;;2.00;1.10;;;26.50;39.90;;;;;;4999834;28;20120;-69
2023/06/27 05:35:22;;;;;;;1.95;1.20;;;26.50;39.90;;;;;;4999095;28;20312;-69
2023/06/27 05:37:48;;;;;;;1.92;1.00;;;26.50;39.90;;;;;;4998888;28;20085;-70
2023/06/27 05:40:14;;;;;;;1.67;1.20;;;26.50;40.00;;;;;;5000574;28;20041;-70
2023/06/27 05:42:40;;;;;;;2.85;1.23;;;26.50;40.10;;;;;;5001064;28;20815;-69
2023/06/27 05:45:06;;;;;;;2.42;1.10;;;26.50;40.20;;;;;;4997187;28;20450;-70
2023/06/27 05:47:32;;;;;;;2.38;1.17;;;26.50;40.20;;;;;;4999352;28;20030;-69
2023/06/27 05:49:57;;;;;;;2.35;1.20;;;26.50;40.30;;;;;;4999789;28;20034;-69
2023/06/27 05:52:23;;;;;;;1.63;1.10;;;26.50;40.40;;;;;;5000013;28;20022;-70
2023/06/27 05:54:52;;;;;;;2.60;1.10;;;26.50;41.00;;;;;;4998472;28;20027;-70
2023/06/27 05:57:18;;;;;;;2.70;1.10;;;26.50;40.50;;;;;;4999781;28;20056;-69
2023/06/27 05:59:44;;;;;;;2.15;1.10;;;26.40;40.50;;;;;;4997978;28;20459;-70
2023/06/27 06:02:09;;;;;;;1.60;1.10;;;26.50;40.60;;;;;;4999052;28;20026;-69
2023/06/27 06:04:35;;;;;;;1.55;1.00;;;26.40;40.60;;;;;;4999290;28;20026;-70
2023/06/27 06:07:03;;;;;;;1.90;1.13;;;26.40;40.70;;;;;;4998580;28;20034;-70
2023/06/27 06:09:30;;;;;;;2.43;1.13;;;26.40;40.70;;;;;;5000840;28;20053;-69
2023/06/27 06:11:56;;;;;;;2.65;1.13;;;26.40;40.80;;;;;;4998298;28;20470;-70
2023/06/27 06:14:21;;;;;;;2.22;1.20;;;26.40;40.80;;;;;;4999750;28;20515;-70
2023/06/27 06:16:47;;;;;;;1.98;1.10;;;26.40;40.90;;;;;;4997162;28;20132;-70
2023/06/27 06:19:13;;;;;;;1.70;1.10;;;26.40;40.90;;;;;;4999112;28;20026;-70
2023/06/27 06:21:39;;;;;;;1.95;1.08;;;26.40;41.00;;;;;;4997825;28;20105;-70
2023/06/27 06:24:05;;;;;;;2.60;0.95;;;26.40;41.00;;;;;;4998439;28;20038;-70
2023/06/27 06:26:30;;;;;;;1.75;1.00;;;26.40;41.00;;;;;;4998752;28;20497;-70
2023/06/27 06:28:56;;;;;;;2.63;1.10;;;26.40;41.10;;;;;;4996372;28;20034;-70
2023/06/27 06:31:23;;;;;;;2.00;1.10;;;26.40;41.10;;;;;;4998337;28;20070;-70
2023/06/27 06:33:49;;;;;;;2.13;1.30;;;26.40;41.20;;;;;;4998409;28;20022;-69
2023/06/27 06:36:15;;;;;;;1.85;1.02;;;26.40;41.20;;;;;;4995548;28;20300;-70
2023/06/27 06:38:41;;;;;;;2.10;1.10;;;26.40;41.20;;;;;;4996775;28;20042;-70
2023/06/27 06:41:07;;;;;;;1.75;1.10;;;26.40;41.30;;;;;;5000909;28;20102;-70
2023/06/27 06:43:32;;;;;;;2.22;1.20;;;26.40;41.30;;;;;;4999595;28;20029;-70
2023/06/27 06:45:59;;;;;;;2.22;0.90;;;26.40;41.30;;;;;;4999624;28;20044;-70
2023/06/27 06:48:24;;;;;;;2.17;1.10;;;26.40;41.40;;;;;;5000190;28;20849;-70
2023/06/27 06:50:51;;;;;;;1.88;1.10;;;26.40;41.40;;;;;;4998235;28;20030;-70
2023/06/27 06:53:18;;;;;;;1.65;1.10;;;26.40;41.40;;;;;;4998895;28;20041;-70
2023/06/27 06:55:43;;;;;;;2.10;1.10;;;26.40;41.40;;;;;;4998757;28;20034;-70
2023/06/27 06:58:09;;;;;;;2.10;1.13;;;26.40;41.50;;;;;;4999566;28;20069;-70
2023/06/27 07:00:35;;;;;;;1.42;1.02;;;26.40;41.50;;;;;;4996939;28;20027;-70
2023/06/27 07:03:03;;;;;;;2.60;1.10;;;26.40;41.50;;;;;;4998574;28;20057;-70
2023/06/27 07:05:29;;;;;;;2.65;1.20;;;26.40;42.10;;;;;;4997584;28;20018;-70
2023/06/27 07:07:54;;;;;;;1.75;1.10;;;26.40;41.60;;;;;;4998666;28;20055;-70
2023/06/27 07:10:20;;;;;;;2.78;1.20;;;26.40;41.60;;;;;;5001808;28;20022;-70
2023/06/27 07:12:46;;;;;;;1.75;1.13;;;26.40;41.70;;;;;;5002538;28;20654;-70
2023/06/27 07:15:11;;;;;;;2.05;1.20;;;26.40;41.70;;;;;;5000352;28;20027;-70
2023/06/27 07:17:37;;;;;;;2.08;1.10;;;26.40;41.70;;;;;;5006046;28;20042;-70
2023/06/27 07:20:08;;;;;;;1.77;1.10;;;26.40;41.70;;;;;;5004469;28;20473;-70
2023/06/27 07:22:34;;;;;;;2.70;1.23;;;26.40;41.80;;;;;;5003539;28;20065;-70
2023/06/27 07:24:59;;;;;;;1.83;1.10;;;26.40;41.80;;;;;;5003783;28;20140;-70
2023/06/27 07:27:25;;;;;;;1.98;0.95;;;26.40;41.80;;;;;;4999714;28;20167;-70
2023/06/27 07:29:51;;;;;;;1.92;1.08;;;26.30;41.80;;;;;;5001907;28;20026;-70
2023/06/27 07:32:16;;;;;;;1.83;1.08;;;26.40;41.90;;;;;;5002599;28;20119;-70
2023/06/27 07:34:42;;;;;;;2.55;1.20;;;26.40;41.90;;;;;;5002090;28;20482;-70
2023/06/27 07:37:07;;;;;;;2.03;1.17;;;26.40;41.90;;;;;;5000702;28;20022;-70
2023/06/27 07:39:33;;;;;;;2.85;1.10;;;26.40;42.00;;;;;;5000979;28;20034;-70
2023/06/27 07:41:58;;;;;;;1.90;1.10;;;26.40;42.00;;;;;;5000181;28;20026;-70
2023/06/27 07:44:25;;;;;;;1.70;0.98;;;26.40;42.00;;;;;;4998635;28;20026;-70
2023/06/27 07:46:51;;;;;;;1.60;1.00;;;26.40;42.00;;;;;;5000672;28;20386;-70
2023/06/27 07:49:16;;;;;;;1.58;1.05;;;26.40;42.10;;;;;;4999833;28;20034;-70
2023/06/27 07:51:42;;;;;;;2.55;1.20;;;26.40;42.10;;;;;;5002793;28;20459;-70
2023/06/27 07:54:09;;;;;;;1.70;1.00;;;26.40;42.10;;;;;;5002405;28;20477;-70
2023/06/27 07:56:35;;;;;;;2.33;1.00;;;26.40;42.10;;;;;;4999403;28;20025;-70
2023/06/27 07:59:02;;;;;;;1.60;1.10;;;26.40;42.10;;;;;;5000809;28;20030;-70
2023/06/27 08:01:28;;;;;;;1.58;1.00;;;26.40;42.10;;;;;;5001215;28;20438;-70
2023/06/27 08:03:53;;;;;;;1.65;1.05;;;26.40;42.10;;;;;;4998581;28;20029;-70
2023/06/27 08:06:19;;;;;;;1.40;0.95;;;26.40;42.10;;;;;;5002897;28;20036;-70
2023/06/27 08:08:45;;;;;;;1.58;1.20;;;26.40;42.10;;;;;;5000619;28;20525;-70
2023/06/27 08:11:10;;;;;;;1.25;0.90;;;26.30;42.10;;;;;;5004113;28;20117;-70
2023/06/27 08:13:41;;;;;;;1.40;0.93;;;26.40;42.20;;;;;;5001155;28;20044;-70
2023/06/27 08:16:09;;;;;;;1.90;1.00;;;26.40;42.30;;;;;;5001563;28;20189;-70
2023/06/27 08:18:35;;;;;;;1.45;1.10;;;26.40;42.30;;;;;;5000180;28;20528;-70
2023/06/27 08:21:01;;;;;;;1.27;1.00;;;26.40;42.30;;;;;;5001672;28;20053;-70
2023/06/27 08:23:27;;;;;;;1.88;1.10;;;26.40;42.30;;;;;;4999290;28;20034;-70
2023/06/27 08:25:54;;;;;;;2.35;1.20;;;26.30;42.20;;;;;;5002077;28;20420;-70
2023/06/27 08:28:20;;;;;;;1.50;0.90;;;26.30;42.20;;;;;;5000833;28;20482;-70
2023/06/27 08:30:46;;;;;;;1.33;1.10;;;26.40;42.80;;;;;;4999325;28;20022;-70
2023/06/27 08:33:12;;;;;;;1.52;1.00;;;26.40;42.20;;;;;;5001178;28;20036;-70
2023/06/27 08:35:38;;;;;;;2.55;1.30;;;26.40;42.20;;;;;;5001480;28;20049;-70
2023/06/27 08:38:04;;;;;;;1.90;1.10;;;26.40;42.30;;;;;;5003668;28;20572;-70
2023/06/27 08:40:35;;;;;;;2.00;1.10;;;26.40;42.30;;;;;;5001919;28;20022;-70
2023/06/27 08:43:01;;;;;;;1.85;1.10;;;26.40;42.30;;;;;;4997089;28;20022;-70
2023/06/27 08:45:27;;;;;;;1.65;0.95;;;26.40;42.30;;;;;;5001292;28;20157;-70
2023/06/27 08:47:53;;;;;;;1.70;1.10;;;26.40;42.30;;;;;;5000548;28;20037;-70
2023/06/27 08:50:21;;;;;;;1.83;1.10;;;26.40;42.30;;;;;;5000373;28;20019;-70
2023/06/27 08:52:57;;;;;;;1.70;1.10;;;26.40;42.30;;;;;;5000711;28;20924;-70
2023/06/27 08:55:46;;;;;;;1.33;0.90;;;26.40;42.30;;;;;;5000469;28;20026;-70
2023/06/27 08:58:15;;;;;;;1.65;1.00;;;26.30;42.30;;;;;;5001934;28;20031;-70
2023/06/27 09:00:46;;;;;;;1.65;1.00;;;26.40;42.40;;;;;;4999563;28;20105;-70
2023/06/27 09:03:12;;;;;;;1.65;1.10;;;26.40;42.40;;;;;;5001157;28;20441;-70
2023/06/27 09:05:38;;;;;;;1.30;0.98;;;26.40;42.40;;;;;;5001613;28;20027;-70
2023/06/27 09:08:04;;;;;;;1.88;1.10;;;26.40;42.40;;;;;;4997986;28;20088;-70
2023/06/27 09:10:30;;;;;;;1.38;0.93;;;26.40;42.40;;;;;;5000980;28;20034;-70
2023/06/27 09:12:57;;;;;;;1.75;1.08;;;26.40;42.50;;;;;;4999639;28;20420;-71
2023/06/27 09:15:23;;;;;;;2.13;1.10;;;26.40;42.40;;;;;;4999230;28;20022;-70
2023/06/27 09:17:49;;;;;;;1.88;1.00;;;26.30;42.40;;;;;;5001995;28;20394;-70
2023/06/27 09:20:17;;;;;;;1.63;1.10;;;26.40;42.40;;;;;;4999959;28;20062;-70
2023/06/27 09:22:43;;;;;;;1.83;1.17;;;26.40;42.50;;;;;;4999578;28;20113;-70
2023/06/27 09:25:16;;;;;;;1.45;1.00;;;26.30;42.40;;;;;;5000339;28;20026;-70
2023/06/27 09:27:43;;;;;;;1.73;1.10;;;26.40;42.50;;;;;;5000284;28;20414;-70
2023/06/27 09:30:10;;;;;;;1.25;0.90;;;26.30;42.40;;;;;;5006610;28;20030;-71
2023/06/27 09:32:55;;;;;;;1.27;1.00;;;26.40;42.50;;;;;;5000498;28;20430;-70
2023/06/27 09:35:21;;;;;;;1.92;1.00;;;26.40;42.50;;;;;;4999984;28;20513;-70
2023/06/27 09:37:48;;;;;;;1.58;1.00;;;26.40;42.60;;;;;;5000192;28;20512;-70
2023/06/27 09:40:19;;;;;;;1.65;0.90;;;26.30;42.50;;;;;;4997118;28;20026;-70
2023/06/27 09:42:55;;;;;;;1.70;1.00;;;26.30;42.50;;;;;;4995206;28;20497;-70
2023/06/27 09:45:23;;;;;;;1.83;1.00;;;26.40;42.60;;;;;;4999421;28;20053;-70
2023/06/27 09:47:49;;;;;;;1.77;1.10;;;26.40;42.60;;;;;;4997947;28;20026;-70
2023/06/27 09:50:16;;;;;;;1.50;1.00;;;26.40;42.60;;;;;;4999136;28;20022;-70
2023/06/27 09:53:04;;;;;;;1.70;1.10;;;26.40;42.60;;;;;;5000445;28;20521;-70
2023/06/27 09:55:30;;;;;;;1.77;1.10;;;26.40;42.70;;;;;;5001303;28;20025;-70
2023/06/27 09:57:57;;;;;;;1.55;0.98;;;26.40;42.60;;;;;;4998355;28;20112;-70
2023/06/27 10:00:26;;;;;;;1.88;1.00;;;26.40;42.60;;;;;;4999011;28;20010;-70
2023/06/27 10:02:52;;;;;;;1.35;0.90;;;26.40;42.70;;;;;;5000625;28;20435;-70
2023/06/27 10:05:20;;;;;;;1.27;0.90;;;26.40;42.70;;;;;;5000321;28;20095;-70
2023/06/27 10:07:48;;;;;;;1.50;1.00;;;26.40;42.70;;;;;;5001322;28;20030;-70
2023/06/27 10:10:14;;;;;;;1.20;0.95;;;26.40;42.70;;;;;;4999338;28;20041;-70
2023/06/27 10:12:42;;;;;;;1.35;0.80;;;26.40;42.80;;;;;;4998518;28;20023;-70
2023/06/27 10:15:09;;;;;;;1.13;0.90;;;26.30;42.70;;;;;;4996803;28;20036;-70
2023/06/27 10:17:35;;;;;;;1.10;0.85;;;26.40;42.80;;;;;;4999087;28;20053;-70
2023/06/27 10:20:03;;;;;;;1.20;0.93;;;26.30;42.70;;;;;;4999773;28;20026;-70
2023/06/27 10:22:31;;;;;;;1.13;0.90;;;26.40;42.80;;;;;;5000211;28;20025;-70
2023/06/27 10:25:04;;;;;;;1.40;1.00;;;26.40;42.80;;;;;;4999663;28;20030;-70
2023/06/27 10:27:42;;;;;;;1.33;0.93;;;26.40;42.80;;;;;;4997509;28;20026;-70
2023/06/27 10:30:11;;;;;;;1.13;0.80;;;26.40;42.80;;;;;;4995639;28;20037;-70
2023/06/27 10:32:44;;;;;;;1.40;1.00;;;26.40;42.80;;;;;;4999842;28;20061;-70
2023/06/27 10:35:12;;;;;;;1.38;0.88;;;26.40;42.90;;;;;;4999084;28;20545;-70
2023/06/27 10:37:40;;;;;;;1.20;0.95;;;26.40;42.80;;;;;;5004438;28;20037;-70
2023/06/27 10:40:08;;;;;;;1.70;1.00;;;26.40;42.90;;;;;;4997567;28;20553;-70
2023/06/27 10:42:34;;;;;;;1.20;0.80;;;26.40;42.80;;;;;;4997232;28;20046;-70
2023/06/27 10:45:27;;;;;;;1.98;1.00;;;26.40;42.90;;;;;;4997358;28;20280;-71
2023/06/27 10:47:53;;;;;;;1.55;1.00;;;26.30;42.80;;;;;;4996494;28;20510;-70
2023/06/27 10:50:22;;;;;;;2.20;1.00;;;26.40;42.90;;;;;;4998828;28;20113;-70
2023/06/27 10:53:07;;;;;;;1.35;0.95;;;26.40;43.00;;;;;;4998979;28;20494;-70
2023/06/27 10:55:33;;;;;;;1.45;0.82;;;26.40;42.90;;;;;;4997839;28;20101;-71
2023/06/27 10:58:09;;;;;;;1.60;1.08;;;26.40;42.90;;;;;;5000734;28;20417;-70
2023/06/27 11:00:40;;;;;;;1.75;0.90;;;26.40;43.00;;;;;;5012274;28;20030;-70
2023/06/27 11:03:06;;;;;;;1.98;1.10;;;26.40;43.00;;;;;;4997377;28;20125;-71
2023/06/27 11:05:51;;;;;;;1.15;0.95;;;26.40;43.00;;;;;;5000961;28;20696;-70
2023/06/27 11:08:19;;;;;;;1.85;1.10;;;26.40;43.00;;;;;;4999643;28;20026;-70
2023/06/27 11:11:03;;;;;;;1.30;1.00;;;26.40;43.10;;;;;;4999318;28;20022;-71
2023/06/27 11:13:34;;;;;;;1.30;0.90;;;26.40;43.00;;;;;;4997867;28;20478;-70
2023/06/27 11:15:59;;;;;;;1.58;1.00;;;26.40;43.10;;;;;;4997368;28;20045;-70
2023/06/27 11:18:26;;;;;;;1.48;0.90;;;26.40;43.10;;;;;;4999353;28;20504;-70
2023/06/27 11:20:52;;;;;;;1.10;0.90;;;26.40;43.10;;;;;;4997495;28;20096;-70
2023/06/27 11:23:20;;;;;;;1.20;0.90;;;26.40;43.10;;;;;;4998498;28;20041;-70
2023/06/27 11:25:46;;;;;;;1.52;0.93;;;26.40;43.10;;;;;;5000113;28;20033;-64
2023/06/27 11:28:19;;;;;;;1.13;0.85;;;26.40;43.10;;;;;;4999371;28;20562;-63
2023/06/27 11:30:45;;;;;;;1.30;0.80;;;26.40;43.10;;;;;;4998106;28;20489;-64
2023/06/27 11:33:14;;;;;;;1.30;1.00;;;26.40;43.10;;;;;;4996715;28;20394;-64
2023/06/27 11:35:40;;;;;;;;;;;26.40;43.10;;;;;;4998846;28;20038;-63
2023/06/27 11:38:07;;;;;;;1.45;1.00;;;26.40;43.10;;;;;;4997921;28;19956;-63
2023/06/27 11:40:33;;;;;;;1.40;1.00;;;26.40;43.10;;;;;;4997333;28;20520;-63
2023/06/27 11:43:03;;;;;;;1.42;1.10;;;26.40;43.10;;;;;;4998740;28;20058;-64
2023/06/27 11:45:31;;;;;;;1.15;0.90;;;26.40;43.20;;;;;;4998152;28;20046;-64
2023/06/27 11:48:00;;;;;;;1.45;1.00;;;26.40;43.20;;;;;;4996258;28;20064;-64
2023/06/27 11:50:27;;;;;;;1.58;1.00;;;26.40;43.10;;;;;;4999388;28;20501;-63
2023/06/27 11:52:55;;;;;;;2.08;1.00;;;26.40;43.10;;;;;;4997656;28;20062;-63
2023/06/27 11:55:21;;;;;;;1.23;0.90;;;26.40;43.10;;;;;;5000081;28;20066;-62
2023/06/27 11:57:48;;;;;;;1.20;0.80;;;26.40;43.10;;;;;;5000209;28;20080;-62
2023/06/27 12:00:25;;;;;;;1.92;1.15;;;26.40;43.00;;;;;;5001699;28;20053;-63
2023/06/27 12:02:52;;;;;;;1.52;0.90;;;26.40;43.00;;;;;;5000972;28;20072;-63
2023/06/27 12:05:19;;;;;;;1.13;0.90;;;26.40;42.90;;;;;;5002121;28;20040;-63
2023/06/27 12:08:05;;;;;;;1.58;0.90;;;26.40;42.90;;;;;;5000999;28;20439;-63
2023/06/27 12:10:51;;;;;;;1.38;0.90;;;26.40;42.90;;;;;;5001057;28;20041;-62
2023/06/27 12:13:16;;;;;;;1.17;0.80;;;26.40;42.90;;;;;;5001934;28;20030;-63
2023/06/27 12:15:44;;;;;;;0.98;0.70;;;26.40;42.80;;;;;;5000478;28;20340;-63
2023/06/27 12:18:11;;;;;;;1.13;0.80;;;26.40;42.80;;;;;;5001189;28;20022;-62
2023/06/27 12:20:44;;;;;;;1.50;0.82;;;26.40;42.80;;;;;;5003311;28;20474;-64
2023/06/27 12:23:11;;;;;;;1.95;1.00;;;26.40;42.90;;;;;;5002722;28;20022;-64
2023/06/27 12:25:40;;;;;;;1.23;0.85;;;26.40;42.90;;;;;;5001632;28;20045;-63
2023/06/27 12:28:07;;;;;;;1.25;0.82;;;26.40;42.90;;;;;;5000617;28;20030;-64
2023/06/27 12:30:32;;;;;;;2.47;1.00;;;26.40;42.90;;;;;;5001245;28;20061;-64
2023/06/27 12:32:58;;;;;;;1.25;0.90;;;26.40;42.90;;;;;;4997950;28;20027;-63
2023/06/27 12:35:24;;;;;;;1.50;0.90;;;26.40;42.80;;;;;;5000337;28;20381;-63
2023/06/27 12:37:50;;;;;;;1.20;0.90;;;26.50;42.90;;;;;;5001609;28;20026;-64
2023/06/27 12:40:16;;;;;;;2.22;0.90;;;26.40;42.80;;;;;;5001866;28;20678;-64
2023/06/27 12:42:42;;;;;;;0.95;0.82;;;26.50;42.80;;;;;;5000968;28;20022;-64
2023/06/27 12:45:09;;;;;;;1.10;0.70;;;26.50;42.80;;;;;;4999902;28;20030;-64
2023/06/27 12:47:36;;;;;;;1.00;0.80;;;26.40;42.80;;;;;;5001629;28;20144;-63
2023/06/27 12:50:03;;;;;;;1.17;0.90;;;26.50;42.90;;;;;;4998675;28;20091;-64